Time;durP1;ratioP1;P1;durP2;ratioP2;P2;SDS_P1;SDS_P2;PMS_P1;PMS_P2;Temp;Humidity;BMP_temperature;BMP_pressure;BME280_temperature;BME280_humidity;BME280_pressure;Samples;Min_cycle;Max_cycle;Signal;HPM_P1;HPM_P2
2021/07/25 00:01:03;;;;;;;6.90;3.25;;;;;;;21.68;56.31;100528.38;5011181;28;20483;-67
2021/07/25 00:03:28;;;;;;;7.93;3.53;;;;;;;21.77;56.16;100522.16;5011087;28;20026;-66
2021/07/25 00:05:55;;;;;;;5.85;3.33;;;;;;;21.62;56.32;100521.41;5010829;28;20045;-66
2021/07/25 00:08:20;;;;;;;6.95;2.95;;;;;;;21.56;56.58;100512.69;5010892;28;20029;-68
2021/07/25 00:10:47;;;;;;;4.80;2.80;;;;;;;21.68;56.26;100514.38;5009578;28;20091;-67
2021/07/25 00:13:14;;;;;;;5.22;3.10;;;;;;;21.70;55.56;100510.84;5010656;28;20030;-69
2021/07/25 00:15:40;;;;;;;7.22;3.10;;;;;;;21.49;56.13;100511.84;5010855;28;20111;-67
2021/07/25 00:18:05;;;;;;;6.93;3.17;;;;;;;21.44;56.30;100513.63;5011133;28;20037;-67
2021/07/25 00:20:31;;;;;;;4.72;2.72;;;;;;;21.42;56.68;100510.16;5014369;28;20029;-67
2021/07/25 00:22:58;;;;;;;7.43;3.42;;;;;;;21.35;56.16;100498.81;5011463;28;20497;-67
2021/07/25 00:25:23;;;;;;;7.28;3.20;;;;;;;21.50;55.92;100503.09;5014514;28;20037;-69
2021/07/25 00:27:57;;;;;;;5.43;2.88;;;;;;;21.33;56.35;100506.72;4995734;28;20038;-67
2021/07/25 00:30:24;;;;;;;9.23;3.20;;;;;;;21.32;56.25;100504.06;5014708;28;20080;-67
2021/07/25 00:32:50;;;;;;;7.35;3.58;;;;;;;21.33;56.37;100505.81;5013990;28;20057;-67
2021/07/25 00:35:18;;;;;;;9.27;3.08;;;;;;;21.11;56.88;100500.72;5013933;28;20484;-67
2021/07/25 00:37:44;;;;;;;7.05;3.00;;;;;;;21.04;57.16;100506.03;5014450;28;20121;-67
2021/07/25 00:40:23;;;;;;;9.95;3.33;;;;;;;20.92;58.13;100499.09;5013952;28;20030;-67
2021/07/25 00:42:49;;;;;;;9.73;3.40;;;;;;;20.62;57.99;100443.22;5014124;28;20026;-67
2021/07/25 00:45:14;;;;;;;5.03;2.88;;;;;;;21.03;57.20;100493.78;5014204;28;20042;-67
2021/07/25 00:47:40;;;;;;;7.40;3.40;;;;;;;21.04;57.77;100509.50;5013762;28;20036;-66
2021/07/25 00:50:08;;;;;;;9.82;4.00;;;;;;;21.02;57.70;100503.38;5013692;28;20037;-67
2021/07/25 00:52:36;;;;;;;11.83;3.60;;;;;;;20.94;57.48;100495.56;5013819;28;20109;-66
2021/07/25 00:55:01;;;;;;;8.05;4.13;;;;;;;20.92;56.96;100473.72;5013817;28;20050;-67
2021/07/25 00:57:27;;;;;;;12.55;4.00;;;;;;;20.97;57.40;100492.94;5013405;28;20029;-67
2021/07/25 00:59:52;;;;;;;9.13;3.85;;;;;;;20.99;57.54;100501.66;5013738;28;20053;-66
2021/07/25 01:02:18;;;;;;;11.60;4.22;;;;;;;20.98;57.48;100494.66;5013770;28;20169;-67
2021/07/25 01:04:57;;;;;;;11.00;3.70;;;;;;;20.88;56.35;100502.63;5013664;28;20480;-67
2021/07/25 01:07:40;;;;;;;6.53;3.63;;;;;;;20.83;57.51;100511.34;5013784;28;20033;-66
2021/07/25 01:10:15;;;;;;;12.02;3.88;;;;;;;20.60;58.50;100503.56;5013199;28;20030;-67
2021/07/25 01:12:47;;;;;;;8.43;3.30;;;;;;;20.57;58.38;100508.81;5013653;28;20034;-67
2021/07/25 01:15:26;;;;;;;9.50;4.18;;;;;;;20.54;58.82;100514.09;5013470;28;20033;-67
2021/07/25 01:17:55;;;;;;;6.70;3.97;;;;;;;20.51;58.23;100487.84;5013069;28;20037;-67
2021/07/25 01:20:21;;;;;;;9.02;3.50;;;;;;;20.51;57.36;100503.59;5013612;28;20034;-66
2021/07/25 01:22:49;;;;;;;10.60;3.25;;;;;;;20.50;57.44;100518.47;5013286;28;20042;-67
2021/07/25 01:25:16;;;;;;;7.55;3.25;;;;;;;20.60;57.02;100514.06;5013384;28;20033;-66
2021/07/25 01:27:53;;;;;;;7.82;3.65;;;;;;;20.65;57.19;100517.53;5013399;28;20095;-66
2021/07/25 01:30:22;;;;;;;8.50;3.78;;;;;;;20.68;57.09;100512.25;5012606;28;20026;-67
2021/07/25 01:32:51;;;;;;;9.50;3.35;;;;;;;20.62;57.13;100506.19;5013050;28;20514;-67
2021/07/25 01:35:17;;;;;;;10.23;4.55;;;;;;;20.47;57.50;100508.00;5012797;28;20037;-67
2021/07/25 01:37:44;;;;;;;11.77;4.43;;;;;;;20.50;58.04;100513.22;5012829;28;20045;-67
2021/07/25 01:40:20;;;;;;;7.63;3.85;;;;;;;20.47;57.93;100500.13;5012892;28;20033;-66
2021/07/25 01:42:47;;;;;;;8.27;3.90;;;;;;;20.47;57.97;100512.34;5012502;28;20108;-67
2021/07/25 01:45:13;;;;;;;9.25;3.90;;;;;;;20.32;58.35;100503.66;5012353;28;20037;-66
2021/07/25 01:47:39;;;;;;;9.95;3.80;;;;;;;20.19;58.98;100508.06;4994220;28;20038;-65
2021/07/25 01:50:05;;;;;;;10.30;3.97;;;;;;;20.10;59.39;100502.84;5011256;28;20026;-66
2021/07/25 01:52:31;;;;;;;9.73;3.85;;;;;;;20.14;59.21;100516.81;5013021;28;20459;-66
2021/07/25 01:54:57;;;;;;;10.85;4.18;;;;;;;20.19;59.34;100513.28;5012799;28;20045;-68
2021/07/25 01:57:22;;;;;;;8.23;3.97;;;;;;;20.11;58.71;100507.22;5012151;28;20046;-67
2021/07/25 01:59:48;;;;;;;8.45;3.60;;;;;;;20.18;58.71;100513.31;5010944;28;20030;-67
2021/07/25 02:02:13;;;;;;;10.93;4.10;;;;;;;20.32;58.23;100508.88;5012701;28;20030;-68
2021/07/25 02:04:39;;;;;;;8.70;4.15;;;;;;;20.46;57.75;100519.38;5012557;28;20113;-66
2021/07/25 02:07:05;;;;;;;9.82;3.85;;;;;;;20.28;58.07;100507.16;5012704;28;20026;-69
2021/07/25 02:09:34;;;;;;;12.13;4.45;;;;;;;20.44;57.26;100523.72;5012232;28;20471;-67
2021/07/25 02:11:59;;;;;;;9.48;3.70;;;;;;;20.26;57.12;100510.66;5023168;28;20026;-66
2021/07/25 02:14:25;;;;;;;7.95;3.88;;;;;;;20.34;57.68;100522.00;5032446;28;20040;-66
2021/07/25 02:16:50;;;;;;;9.38;4.40;;;;;;;20.28;58.04;100524.66;5031678;28;20545;-65
2021/07/25 02:19:16;;;;;;;16.65;4.07;;;;;;;20.15;58.97;100529.91;5014322;28;20033;-69
2021/07/25 02:21:41;;;;;;;13.85;4.15;;;;;;;20.18;58.40;100527.28;5031933;28;20053;-66
2021/07/25 02:24:07;;;;;;;9.48;4.15;;;;;;;20.02;57.88;100515.94;5031668;28;20523;-66
2021/07/25 02:26:33;;;;;;;12.13;3.95;;;;;;;20.01;58.32;100519.47;5031280;28;20021;-65
2021/07/25 02:28:58;;;;;;;8.93;3.88;;;;;;;20.09;58.03;100529.03;5031740;28;20019;-66
2021/07/25 02:31:23;;;;;;;11.50;4.25;;;;;;;20.13;57.48;100526.41;5031871;28;20033;-65
2021/07/25 02:33:49;;;;;;;9.63;3.70;;;;;;;20.02;57.90;100521.19;5031324;28;20028;-66
2021/07/25 02:36:14;;;;;;;8.52;3.65;;;;;;;20.06;58.16;100534.28;5031349;28;20045;-65
2021/07/25 02:38:40;;;;;;;9.68;4.18;;;;;;;20.00;57.70;100538.66;5031661;28;20116;-66
2021/07/25 02:41:05;;;;;;;9.85;3.85;;;;;;;19.82;58.64;100526.41;5031037;28;20029;-67
2021/07/25 02:43:31;;;;;;;8.27;3.83;;;;;;;19.67;59.29;100536.88;5031659;28;20104;-66
2021/07/25 02:45:57;;;;;;;11.85;4.22;;;;;;;19.50;60.17;100545.63;5031523;28;20022;-67
2021/07/25 02:48:23;;;;;;;6.88;4.07;;;;;;;19.04;62.02;100542.88;5031338;28;20169;-66
2021/07/25 02:50:48;;;;;;;11.40;4.32;;;;;;;18.40;63.82;100550.38;5031211;28;20110;-65
2021/07/25 02:53:14;;;;;;;9.82;4.20;;;;;;;18.21;64.99;100543.31;5031223;28;20036;-66
2021/07/25 02:55:39;;;;;;;9.48;4.65;;;;;;;18.53;63.77;100556.56;5031088;28;20029;-66
2021/07/25 02:58:05;;;;;;;10.93;4.05;;;;;;;18.55;63.30;100533.91;5031368;28;20124;-66
2021/07/25 03:00:30;;;;;;;10.23;3.80;;;;;;;18.77;62.90;100547.09;5027939;28;20034;-68
2021/07/25 03:02:56;;;;;;;9.27;4.22;;;;;;;18.87;62.12;100559.34;5012070;28;20029;-66
2021/07/25 03:05:25;;;;;;;11.02;4.25;;;;;;;18.85;62.07;100547.13;5011243;28;20044;-66
2021/07/25 03:07:50;;;;;;;11.37;3.63;;;;;;;18.84;61.06;100517.50;5011477;28;20034;-65
2021/07/25 03:10:17;;;;;;;7.53;4.03;;;;;;;19.12;60.66;100538.53;5011325;28;20364;-66
2021/07/25 03:12:43;;;;;;;7.32;3.65;;;;;;;19.19;60.16;100548.16;5011583;28;20105;-66
2021/07/25 03:15:09;;;;;;;4.95;3.40;;;;;;;19.10;60.31;100553.34;5011391;28;20105;-66
2021/07/25 03:17:34;;;;;;;6.30;3.53;;;;;;;19.08;59.96;100558.59;4977247;28;20057;-66
2021/07/25 03:20:00;;;;;;;8.95;4.22;;;;;;;19.14;59.71;100549.00;5011648;28;20472;-69
2021/07/25 03:22:26;;;;;;;11.38;4.20;;;;;;;19.07;60.17;100550.75;5011296;28;20076;-67
2021/07/25 03:24:51;;;;;;;11.18;4.43;;;;;;;19.15;59.86;100553.38;5011572;28;20476;-66
2021/07/25 03:27:16;;;;;;;17.35;4.80;;;;;;;19.23;59.80;100549.06;5011373;28;20029;-65
2021/07/25 03:29:42;;;;;;;9.55;4.20;;;;;;;19.14;60.31;100549.91;5011552;28;20037;-66
2021/07/25 03:32:07;;;;;;;10.05;4.45;;;;;;;18.98;61.08;100554.19;5011176;28;20034;-66
2021/07/25 03:34:33;;;;;;;10.25;4.15;;;;;;;19.02;61.29;100557.72;5011200;28;20030;-66
2021/07/25 03:37:00;;;;;;;7.30;3.72;;;;;;;19.13;61.17;100553.38;5011296;28;20546;-66
2021/07/25 03:39:26;;;;;;;9.07;3.97;;;;;;;19.11;61.45;100549.88;5011146;28;20037;-66
2021/07/25 03:41:52;;;;;;;11.70;4.68;;;;;;;19.15;61.31;100549.03;5011062;28;20381;-66
2021/07/25 03:44:17;;;;;;;9.68;4.28;;;;;;;19.17;61.20;100539.44;5011335;28;20065;-66
2021/07/25 03:46:43;;;;;;;12.60;4.55;;;;;;;19.15;61.57;100542.91;5011146;28;20076;-66
2021/07/25 03:49:09;;;;;;;18.13;4.78;;;;;;;19.07;61.75;100528.06;5011109;28;20121;-66
2021/07/25 03:51:38;;;;;;;12.60;4.68;;;;;;;19.21;61.64;100535.94;5011191;28;20034;-66
2021/07/25 03:54:04;;;;;;;11.07;4.37;;;;;;;19.39;60.91;100540.34;5012670;28;20096;-66
2021/07/25 03:56:30;;;;;;;9.40;4.78;;;;;;;19.50;60.92;100537.75;5037748;28;20099;-66
2021/07/25 03:58:55;;;;;;;11.63;5.05;;;;;;;19.48;60.82;100536.88;5054731;28;20666;-66
2021/07/25 04:01:21;;;;;;;11.60;4.90;;;;;;;19.43;61.17;100542.97;5054454;28;20032;-65
2021/07/25 04:03:46;;;;;;;11.95;4.50;;;;;;;19.39;61.15;100542.97;5054351;28;20493;-70
2021/07/25 04:06:12;;;;;;;9.98;5.00;;;;;;;19.48;60.95;100546.50;5041905;28;20030;-65
2021/07/25 04:08:37;;;;;;;13.52;4.75;;;;;;;19.32;61.52;100545.59;5023370;28;20033;-66
2021/07/25 04:11:03;;;;;;;11.00;4.70;;;;;;;19.22;61.84;100553.38;5044551;28;20031;-66
2021/07/25 04:13:29;;;;;;;9.68;4.20;;;;;;;19.10;62.26;100548.13;5007631;28;20124;-68
2021/07/25 04:15:55;;;;;;;9.00;4.93;;;;;;;19.08;62.46;100550.75;5044491;28;20116;-68
2021/07/25 04:18:20;;;;;;;9.27;4.20;;;;;;;19.12;62.27;100556.84;5044045;28;20033;-65
2021/07/25 04:20:46;;;;;;;6.97;4.68;;;;;;;19.20;62.20;100560.38;5037701;28;20045;-66
2021/07/25 04:23:11;;;;;;;8.85;4.35;;;;;;;19.12;62.75;100569.94;5033889;28;20033;-66
2021/07/25 04:25:37;;;;;;;8.02;4.45;;;;;;;18.81;63.24;100534.91;5033960;28;20029;-69
2021/07/25 04:28:03;;;;;;;12.07;5.03;;;;;;;18.70;63.35;100537.47;5033902;28;20021;-67
2021/07/25 04:30:30;;;;;;;10.60;4.45;;;;;;;18.85;63.84;100574.16;5033680;28;20029;-67
2021/07/25 04:32:57;;;;;;;8.15;4.72;;;;;;;18.90;64.05;100576.78;5030515;28;20037;-68
2021/07/25 04:35:23;;;;;;;8.95;5.38;;;;;;;18.74;63.65;100536.63;5034067;28;20029;-68
2021/07/25 04:37:51;;;;;;;10.02;4.88;;;;;;;19.07;63.62;100575.16;5033698;28;20037;-69
2021/07/25 04:40:18;;;;;;;6.72;4.28;;;;;;;19.19;63.50;100569.09;5033944;28;20026;-68
2021/07/25 04:43:04;;;;;;;8.13;4.20;;;;;;;19.23;63.90;100576.09;5034225;28;20032;-68
2021/07/25 04:45:33;;;;;;;9.75;4.93;;;;;;;19.26;63.79;100571.75;5033787;28;20029;-68
2021/07/25 04:48:06;;;;;;;7.38;4.55;;;;;;;19.11;64.72;100573.44;5033669;28;20190;-67
2021/07/25 04:50:37;;;;;;;10.60;4.90;;;;;;;18.87;65.26;100540.19;5033971;28;20034;-68
2021/07/25 04:53:05;;;;;;;7.53;4.63;;;;;;;19.05;65.50;100570.78;5015984;28;20030;-68
2021/07/25 04:55:35;;;;;;;8.05;4.03;;;;;;;19.07;65.99;100576.91;5033585;28;20107;-68
2021/07/25 04:58:07;;;;;;;8.68;4.55;;;;;;;18.96;65.78;100555.06;5033579;28;20017;-68
2021/07/25 05:00:49;;;;;;;12.85;4.60;;;;;;;19.19;65.82;100579.56;5033371;28;20029;-67
2021/07/25 05:03:15;;;;;;;10.70;4.68;;;;;;;19.27;65.61;100587.44;5031075;28;20041;-69
2021/07/25 05:05:40;;;;;;;8.63;4.60;;;;;;;19.29;65.64;100596.19;5033236;28;20100;-68
2021/07/25 05:08:06;;;;;;;10.40;4.38;;;;;;;19.23;65.60;100590.94;5033593;28;20025;-68
2021/07/25 05:10:32;;;;;;;6.72;3.90;;;;;;;19.23;65.68;100581.31;5033316;28;20458;-68
2021/07/25 05:13:06;;;;;;;15.40;4.68;;;;;;;19.34;65.63;100606.63;5033434;28;20021;-68
2021/07/25 05:15:35;;;;;;;7.35;3.95;;;;;;;19.40;65.73;100609.28;5033237;28;20026;-67
2021/07/25 05:18:07;;;;;;;6.25;3.47;;;;;;;19.31;65.91;100604.03;5033551;28;20105;-68
2021/07/25 05:21:01;;;;;;;9.55;3.90;;;;;;;19.36;66.17;100612.78;5033156;28;20029;-68
2021/07/25 05:23:54;;;;;;;9.70;3.50;;;;;;;19.46;65.99;100603.19;5033089;28;20407;-68
2021/07/25 05:26:24;;;;;;;7.07;3.97;;;;;;;19.21;66.26;100566.47;4971939;28;20030;-68
2021/07/25 05:28:54;;;;;;;9.63;3.50;;;;;;;19.42;66.38;100607.56;4972117;28;20035;-67
2021/07/25 05:31:21;;;;;;;7.78;4.72;;;;;;;19.43;66.40;100583.13;4971662;28;20112;-68
2021/07/25 05:33:46;;;;;;;9.10;4.30;;;;;;;19.41;66.70;100592.72;4971833;28;20034;-68
2021/07/25 05:36:12;;;;;;;8.75;4.07;;;;;;;19.46;66.41;100609.28;4971628;28;20030;-68
2021/07/25 05:38:37;;;;;;;7.32;3.80;;;;;;;19.38;66.15;100553.44;4971725;28;20027;-68
2021/07/25 05:41:02;;;;;;;6.50;3.80;;;;;;;19.96;65.51;100615.53;4971894;28;20521;-68
2021/07/25 05:43:28;;;;;;;8.93;3.50;;;;;;;19.97;65.09;100584.97;4971807;28;20065;-67
2021/07/25 05:45:53;;;;;;;11.23;4.03;;;;;;;20.13;64.74;100599.81;4971662;28;20106;-70
2021/07/25 05:48:19;;;;;;;6.47;3.88;;;;;;;20.04;64.25;100582.34;4971609;28;20437;-69
2021/07/25 05:50:44;;;;;;;8.32;3.65;;;;;;;20.44;64.14;100622.53;4971648;28;20039;-70
2021/07/25 05:53:10;;;;;;;9.98;3.60;;;;;;;20.50;63.84;100618.13;4971531;28;20458;-68
2021/07/25 05:55:36;;;;;;;7.70;3.70;;;;;;;20.56;63.50;100598.91;4971267;28;20513;-68
2021/07/25 05:58:02;;;;;;;6.35;3.72;;;;;;;20.87;62.73;100616.31;4971425;28;20106;-68
2021/07/25 06:00:27;;;;;;;7.15;3.90;;;;;;;21.09;62.64;100617.97;4971383;28;20174;-68
2021/07/25 06:03:03;;;;;;;11.32;3.88;;;;;;;21.12;62.21;100611.84;4991407;28;20036;-67
2021/07/25 06:05:34;;;;;;;7.80;3.78;;;;;;;21.25;61.75;100624.03;5032266;28;20034;-68
2021/07/25 06:08:01;;;;;;;6.68;3.45;;;;;;;21.39;61.65;100623.97;5032415;28;20491;-68
2021/07/25 06:10:29;;;;;;;5.80;3.22;;;;;;;21.54;61.05;100630.03;5029539;28;20037;-68
2021/07/25 06:12:58;;;;;;;7.80;3.45;;;;;;;21.61;60.62;100618.66;5032060;28;20484;-68
2021/07/25 06:15:25;;;;;;;4.97;3.25;;;;;;;21.62;60.89;100616.00;5031817;28;20063;-68
2021/07/25 06:17:51;;;;;;;5.22;3.40;;;;;;;21.88;60.18;100622.84;5031422;28;20522;-68
2021/07/25 06:20:17;;;;;;;6.05;3.35;;;;;;;22.03;59.40;100613.97;5032007;28;20458;-70
2021/07/25 06:22:43;;;;;;;11.75;3.53;;;;;;;21.91;59.95;100621.94;5028918;28;20033;-68
2021/07/25 06:25:11;;;;;;;8.32;3.38;;;;;;;21.82;60.84;100625.50;5032002;28;20029;-68
2021/07/25 06:27:38;;;;;;;6.18;3.30;;;;;;;22.00;59.83;100619.22;5031728;28;20108;-68
2021/07/25 06:30:05;;;;;;;7.20;3.60;;;;;;;22.04;61.20;100622.72;5013990;28;20029;-68
2021/07/25 06:32:30;;;;;;;6.45;3.28;;;;;;;22.01;60.11;100584.19;5014157;28;20083;-68
2021/07/25 06:34:56;;;;;;;8.05;3.22;;;;;;;22.35;59.18;100620.69;5031441;28;20025;-68
2021/07/25 06:37:21;;;;;;;11.40;3.33;;;;;;;22.57;58.71;100615.25;5032034;28;20021;-68
2021/07/25 06:39:47;;;;;;;14.43;3.67;;;;;;;22.58;58.89;100603.81;5031518;28;20399;-68
2021/07/25 06:42:12;;;;;;;12.98;3.50;;;;;;;22.70;59.12;100611.59;5013699;28;20079;-68
2021/07/25 06:44:38;;;;;;;8.73;3.28;;;;;;;22.86;59.30;100611.44;5031305;28;20032;-67
2021/07/25 06:47:03;;;;;;;6.32;3.20;;;;;;;22.90;58.56;100611.38;5031422;28;20037;-70
2021/07/25 06:49:29;;;;;;;8.68;3.83;;;;;;;22.96;57.81;100610.41;5031732;28;20067;-68
2021/07/25 06:51:54;;;;;;;6.35;3.95;;;;;;;22.94;57.32;100614.81;5031797;28;20033;-68
2021/07/25 06:54:20;;;;;;;8.73;4.43;;;;;;;22.64;57.78;100597.63;5031762;28;20136;-68
2021/07/25 06:56:46;;;;;;;11.70;4.63;;;;;;;22.76;59.19;100621.19;5013034;28;20053;-68
2021/07/25 06:59:11;;;;;;;8.70;4.40;;;;;;;22.88;57.52;100620.16;5012863;28;20095;-68
2021/07/25 07:01:37;;;;;;;6.10;3.58;;;;;;;23.02;57.02;100610.34;5031199;28;20483;-68
2021/07/25 07:04:02;;;;;;;9.90;3.58;;;;;;;23.30;55.64;100622.31;5031485;28;20086;-68
2021/07/25 07:06:28;;;;;;;8.50;3.40;;;;;;;23.47;56.59;100617.69;5031629;28;20052;-68
2021/07/25 07:08:53;;;;;;;8.98;3.75;;;;;;;23.62;56.16;100615.75;5031166;28;20029;-68
2021/07/25 07:11:18;;;;;;;7.65;3.60;;;;;;;23.78;53.73;100613.75;5031141;28;20037;-68
2021/07/25 07:13:44;;;;;;;6.55;3.67;;;;;;;23.56;54.81;100608.78;5031160;28;20026;-68
2021/07/25 07:16:09;;;;;;;6.55;3.47;;;;;;;23.72;55.22;100618.19;5031190;28;20038;-68
2021/07/25 07:18:35;;;;;;;9.45;3.72;;;;;;;23.77;54.82;100622.53;5031349;28;20045;-69
2021/07/25 07:21:00;;;;;;;9.10;3.45;;;;;;;23.82;51.63;100620.69;5031414;28;20031;-67
2021/07/25 07:23:26;;;;;;;9.75;3.85;;;;;;;23.75;54.19;100585.63;5031305;28;20105;-68
2021/07/25 07:25:53;;;;;;;9.20;3.65;;;;;;;24.04;51.14;100610.72;5030895;28;20111;-68
2021/07/25 07:28:20;;;;;;;8.75;4.20;;;;;;;23.96;51.45;100610.81;5033601;28;20026;-68
2021/07/25 07:30:49;;;;;;;13.30;4.60;;;;;;;24.20;51.70;100613.94;5034749;28;20487;-67
2021/07/25 07:33:17;;;;;;;9.30;3.80;;;;;;;24.34;49.82;100614.56;5035593;28;20057;-69
2021/07/25 07:35:43;;;;;;;7.72;3.03;;;;;;;24.22;49.98;100601.59;5035188;28;20120;-68
2021/07/25 07:38:11;;;;;;;6.82;3.75;;;;;;;24.16;49.88;100599.06;5034992;28;20037;-69
2021/07/25 07:40:37;;;;;;;6.50;3.55;;;;;;;24.27;49.09;100612.94;5034845;28;20087;-68
2021/07/25 07:43:06;;;;;;;11.18;3.78;;;;;;;24.54;47.99;100602.78;5034953;28;20083;-68
2021/07/25 07:45:34;;;;;;;12.77;4.90;;;;;;;24.59;47.88;100606.22;5035103;28;20108;-68
2021/07/25 07:47:59;;;;;;;19.92;4.22;;;;;;;24.82;46.86;100604.91;5035007;28;20032;-68
2021/07/25 07:50:25;;;;;;;14.32;4.55;;;;;;;24.97;49.34;100607.28;5034899;28;20037;-68
2021/07/25 07:52:50;;;;;;;9.13;4.40;;;;;;;25.09;47.68;100613.19;5034531;28;20032;-71
2021/07/25 07:55:16;;;;;;;15.13;3.90;;;;;;;25.17;48.79;100608.59;5034578;28;20488;-71
2021/07/25 07:57:43;;;;;;;14.43;3.92;;;;;;;25.08;48.46;100595.59;5034621;28;20025;-69
2021/07/25 08:00:09;;;;;;;10.40;3.35;;;;;;;25.26;44.29;100610.16;5034672;28;20026;-68
2021/07/25 08:02:35;;;;;;;7.38;3.45;;;;;;;25.35;45.65;100612.63;5034624;28;20040;-69
2021/07/25 08:05:02;;;;;;;18.98;4.28;;;;;;;25.66;46.57;100625.19;5034376;28;20028;-69
2021/07/25 08:07:27;;;;;;;8.75;3.28;;;;;;;25.45;45.42;100574.53;5034719;28;20083;-68
2021/07/25 08:09:53;;;;;;;9.98;3.38;;;;;;;25.81;44.57;100616.03;5034508;28;20045;-69
2021/07/25 08:12:19;;;;;;;8.38;3.33;;;;;;;26.00;43.92;100614.63;5034374;28;20433;-70
2021/07/25 08:14:44;;;;;;;9.45;3.10;;;;;;;26.16;44.28;100622.25;5034496;28;20030;-68
2021/07/25 08:17:10;;;;;;;15.85;4.05;;;;;;;26.23;45.71;100607.94;5016609;28;20029;-69
2021/07/25 08:19:35;;;;;;;14.57;4.22;;;;;;;26.11;46.95;100590.59;5034381;28;20026;-69
2021/07/25 08:22:02;;;;;;;17.20;3.75;;;;;;;26.32;43.57;100612.97;5032441;28;20038;-68
2021/07/25 08:24:28;;;;;;;14.55;4.28;;;;;;;26.39;44.91;100618.13;5034055;28;20108;-68
2021/07/25 08:26:54;;;;;;;9.10;3.30;;;;;;;26.61;41.73;100619.28;5034060;28;20049;-68
2021/07/25 08:29:20;;;;;;;6.35;2.95;;;;;;;26.73;41.02;100607.47;5030941;28;20029;-67
2021/07/25 08:31:45;;;;;;;6.47;2.60;;;;;;;26.78;42.07;100597.66;5034160;28;20029;-68
2021/07/25 08:34:11;;;;;;;9.38;2.67;;;;;;;26.89;40.07;100605.31;5034157;28;20029;-68
2021/07/25 08:36:37;;;;;;;8.60;3.17;;;;;;;26.80;41.21;100592.31;5033863;28;20034;-69
2021/07/25 08:39:03;;;;;;;13.75;3.58;;;;;;;26.84;42.46;100607.19;5032826;28;20048;-68
2021/07/25 08:41:47;;;;;;;8.38;2.90;;;;;;;26.86;43.93;100594.78;5034037;28;20471;-70
2021/07/25 08:44:47;;;;;;;8.55;2.67;;;;;;;26.88;42.59;100602.69;5033974;28;20025;-68
2021/07/25 08:47:36;;;;;;;7.63;2.60;;;;;;;26.88;41.82;100602.69;4972855;28;20077;-68
2021/07/25 08:50:16;;;;;;;6.80;2.47;;;;;;;26.90;39.83;100595.56;4972952;28;20042;-68
2021/07/25 08:52:51;;;;;;;6.55;2.53;;;;;;;26.88;39.56;100592.97;4972929;28;20513;-68
2021/07/25 08:55:18;;;;;;;6.30;2.10;;;;;;;26.88;40.21;100592.97;4972468;28;20065;-67
2021/07/25 08:57:46;;;;;;;10.32;2.83;;;;;;;27.00;40.04;100591.72;4956441;28;20160;-68
2021/07/25 09:00:17;;;;;;;5.95;2.70;;;;;;;27.24;36.50;100584.84;4972475;28;20075;-68
2021/07/25 09:02:43;;;;;;;8.02;2.20;;;;;;;27.59;34.40;100587.28;4972961;28;20050;-68
2021/07/25 09:05:10;;;;;;;14.93;2.85;;;;;;;27.75;38.87;100590.31;4972373;28;20031;-68
2021/07/25 09:07:40;;;;;;;4.30;1.92;;;;;;;27.84;35.82;100592.69;4972681;28;20098;-69
2021/07/25 09:10:15;;;;;;;7.68;2.15;;;;;;;27.77;34.55;100592.00;4972685;28;20038;-68
2021/07/25 09:12:42;;;;;;;6.32;2.03;;;;;;;27.77;33.39;100594.66;4972333;28;20109;-68
2021/07/25 09:15:14;;;;;;;11.05;4.05;;;;;;;27.81;34.65;100568.91;4972205;28;20077;-68
2021/07/25 09:17:40;;;;;;;13.25;3.75;;;;;;;28.21;34.74;100587.94;4972381;28;20417;-68
2021/07/25 09:20:24;;;;;;;16.95;5.05;;;;;;;28.47;32.74;100589.66;4975615;28;20039;-69
2021/07/25 09:22:50;;;;;;;21.65;5.32;;;;;;;28.49;31.09;100563.09;5033401;28;20052;-68
2021/07/25 09:25:25;;;;;;;5.35;2.45;;;;;;;28.65;30.66;100580.19;5032983;28;20097;-68
2021/07/25 09:27:56;;;;;;;12.65;4.18;;;;;;;28.65;31.98;100571.34;5033177;28;20112;-68
2021/07/25 09:30:23;;;;;;;16.58;4.00;;;;;;;28.72;33.39;100575.53;5032960;28;20025;-68
2021/07/25 09:32:49;;;;;;;8.98;2.38;;;;;;;28.84;35.79;100564.44;5032948;28;20035;-69
2021/07/25 09:35:36;;;;;;;9.65;2.65;;;;;;;28.84;34.07;100564.44;5025810;28;21374;-68
2021/07/25 09:38:01;;;;;;;13.50;3.70;;;;;;;28.78;34.84;100563.81;5023706;28;20033;-71
2021/07/25 09:40:37;;;;;;;7.43;2.78;;;;;;;28.93;33.40;100559.72;5022833;28;20024;-70
2021/07/25 09:43:16;;;;;;;10.70;2.92;;;;;;;29.08;31.56;100572.41;5006599;28;20510;-68
2021/07/25 09:45:53;;;;;;;4.85;2.60;;;;;;;29.26;33.11;100554.88;5023199;28;20028;-68
2021/07/25 09:48:33;;;;;;;8.00;2.45;;;;;;;29.20;33.53;100558.63;5022994;28;20513;-68
2021/07/25 09:51:19;;;;;;;9.70;2.72;;;;;;;29.32;35.65;100549.34;5022837;28;20033;-70
2021/07/25 09:53:47;;;;;;;9.57;3.75;;;;;;;29.50;31.14;100563.69;5019635;28;20045;-71
2021/07/25 09:56:15;;;;;;;15.52;4.00;;;;;;;29.55;34.33;100552.84;5012631;28;20032;-68
2021/07/25 09:58:41;;;;;;;13.38;2.65;;;;;;;29.75;30.96;100560.00;5012479;28;20168;-69
2021/07/25 10:01:07;;;;;;;5.22;1.98;;;;;;;29.96;31.20;100554.75;5012807;28;20076;-68
2021/07/25 10:03:33;;;;;;;12.85;3.70;;;;;;;29.82;29.86;100518.03;5012584;28;20116;-68
2021/07/25 10:06:23;;;;;;;12.70;3.83;;;;;;;29.65;31.61;100519.63;5012433;28;20052;-67
2021/07/25 10:09:14;;;;;;;10.23;3.13;;;;;;;30.00;33.64;100554.53;5012887;28;20030;-69
2021/07/25 10:11:46;;;;;;;5.93;2.22;;;;;;;30.17;32.47;100548.50;5043694;28;20033;-68
2021/07/25 10:14:15;;;;;;;6.65;2.25;;;;;;;30.10;29.59;100520.41;5049601;28;20029;-68
2021/07/25 10:16:41;;;;;;;21.00;4.00;;;;;;;30.46;31.81;100541.00;5042699;28;20025;-68
2021/07/25 10:19:07;;;;;;;17.77;4.28;;;;;;;30.54;33.24;100534.50;5041000;28;20035;-68
2021/07/25 10:21:34;;;;;;;10.85;2.65;;;;;;;30.56;30.68;100553.94;5036175;28;20480;-69
2021/07/25 10:24:02;;;;;;;5.95;2.30;;;;;;;30.81;29.42;100554.53;5032167;28;20025;-69
2021/07/25 10:26:29;;;;;;;3.50;2.17;;;;;;;30.88;28.19;100536.47;5036296;28;20114;-67
2021/07/25 10:28:56;;;;;;;6.18;2.05;;;;;;;30.98;30.65;100551.09;5042880;28;20033;-68
2021/07/25 10:31:23;;;;;;;7.45;2.28;;;;;;;31.05;28.72;100543.66;5038541;28;20022;-68
2021/07/25 10:33:51;;;;;;;3.40;2.17;;;;;;;31.13;27.58;100541.53;5014104;28;20454;-68
2021/07/25 10:36:20;;;;;;;3.15;1.95;;;;;;;31.32;28.89;100545.09;5031454;28;20064;-70
2021/07/25 10:38:47;;;;;;;6.50;2.30;;;;;;;31.34;26.70;100517.44;5025107;28;20037;-71
2021/07/25 10:41:21;;;;;;;6.35;2.00;;;;;;;31.50;26.32;100530.00;5020843;28;20022;-69
2021/07/25 10:43:46;;;;;;;5.32;2.17;;;;;;;31.32;28.03;100523.75;5019949;28;20483;-73
2021/07/25 10:46:16;;;;;;;3.40;1.92;;;;;;;31.53;26.76;100538.72;5021807;28;20127;-69
2021/07/25 10:49:00;;;;;;;7.82;2.95;;;;;;;31.70;26.79;100527.22;5019914;28;20044;-71
2021/07/25 10:51:36;;;;;;;7.40;2.65;;;;;;;31.69;28.11;100529.94;5020788;28;20029;-71
2021/07/25 10:54:24;;;;;;;5.10;2.20;;;;;;;31.85;26.17;100527.38;5020307;28;20048;-69
2021/07/25 10:57:02;;;;;;;9.32;2.70;;;;;;;31.80;27.94;100529.41;5020687;28;20033;-70
2021/07/25 10:59:52;;;;;;;6.43;2.30;;;;;;;31.95;29.14;100528.59;5039945;28;20033;-71
2021/07/25 11:02:21;;;;;;;5.40;2.20;;;;;;;32.02;25.47;100529.19;5040282;28;20032;-71
2021/07/25 11:04:56;;;;;;;3.73;2.20;;;;;;;32.00;25.47;100515.03;5039827;28;20415;-70
2021/07/25 11:07:24;;;;;;;3.72;2.08;;;;;;;32.02;27.18;100519.34;5033622;28;20134;-72
2021/07/25 11:09:56;;;;;;;6.60;3.00;;;;;;;31.99;26.39;100515.97;5039736;28;20087;-70
2021/07/25 11:12:22;;;;;;;11.50;2.42;;;;;;;31.97;26.46;100532.06;5031331;28;20089;-70
2021/07/25 11:15:00;;;;;;;8.65;2.78;;;;;;;32.16;29.00;100493.72;5027303;28;20048;-70
2021/07/25 11:17:44;;;;;;;6.15;2.30;;;;;;;32.42;26.24;100519.91;4993979;28;20500;-70
2021/07/25 11:20:41;;;;;;;20.67;3.85;;;;;;;32.49;27.67;100517.78;5026422;28;20076;-70
2021/07/25 11:23:33;;;;;;;5.50;2.30;;;;;;;32.43;28.05;100518.13;5029810;28;20037;-70
2021/07/25 11:26:19;;;;;;;4.13;2.10;;;;;;;32.53;27.25;100507.81;5027590;28;20500;-69
2021/07/25 11:28:44;;;;;;;4.90;2.20;;;;;;;32.33;27.42;100507.06;5025719;28;20593;-69